sensor_id;sensor_type;location;lat;lon;timestamp;P1;durP1;ratioP1;P2;durP2;ratioP2
62582;SDS011;48641;51.676;5.808;2022-10-16T00:01:33;4.05;;;1.65;;
62582;SDS011;48641;51.676;5.808;2022-10-16T00:03:58;4.75;;;1.63;;
62582;SDS011;48641;51.676;5.808;2022-10-16T00:06:26;3.90;;;1.52;;
62582;SDS011;48641;51.676;5.808;2022-10-16T00:08:53;3.92;;;1.63;;
62582;SDS011;48641;51.676;5.808;2022-10-16T00:11:23;4.43;;;1.45;;
62582;SDS011;48641;51.676;5.808;2022-10-16T00:13:51;4.43;;;1.50;;
62582;SDS011;48641;51.676;5.808;2022-10-16T00:16:19;4.13;;;1.60;;
62582;SDS011;48641;51.676;5.808;2022-10-16T00:18:45;3.80;;;1.60;;
62582;SDS011;48641;51.676;5.808;2022-10-16T00:21:13;3.20;;;1.35;;
62582;SDS011;48641;51.676;5.808;2022-10-16T00:23:50;3.90;;;1.52;;
62582;SDS011;48641;51.676;5.808;2022-10-16T00:26:17;4.07;;;1.50;;
62582;SDS011;48641;51.676;5.808;2022-10-16T00:28:50;3.67;;;1.42;;
62582;SDS011;48641;51.676;5.808;2022-10-16T00:31:16;4.43;;;1.60;;
62582;SDS011;48641;51.676;5.808;2022-10-16T00:33:43;3.72;;;1.30;;
62582;SDS011;48641;51.676;5.808;2022-10-16T00:36:13;3.13;;;1.40;;
62582;SDS011;48641;51.676;5.808;2022-10-16T00:38:40;3.47;;;1.30;;
62582;SDS011;48641;51.676;5.808;2022-10-16T00:41:06;3.28;;;1.45;;
62582;SDS011;48641;51.676;5.808;2022-10-16T00:43:42;3.67;;;1.27;;
62582;SDS011;48641;51.676;5.808;2022-10-16T00:46:19;4.28;;;1.55;;
62582;SDS011;48641;51.676;5.808;2022-10-16T00:51:16;2.58;;;1.30;;
62582;SDS011;48641;51.676;5.808;2022-10-16T00:53:44;3.83;;;1.40;;
62582;SDS011;48641;51.676;5.808;2022-10-16T00:56:10;3.92;;;1.65;;
62582;SDS011;48641;51.676;5.808;2022-10-16T00:58:36;4.97;;;1.70;;
62582;SDS011;48641;51.676;5.808;2022-10-16T01:01:01;3.25;;;1.23;;
62582;SDS011;48641;51.676;5.808;2022-10-16T01:03:28;4.40;;;1.50;;
62582;SDS011;48641;51.676;5.808;2022-10-16T01:14:40;2.90;;;1.30;;
62582;SDS011;48641;51.676;5.808;2022-10-16T01:17:18;2.35;;;1.17;;
62582;SDS011;48641;51.676;5.808;2022-10-16T01:25:25;3.90;;;1.40;;
62582;SDS011;48641;51.676;5.808;2022-10-16T01:28:21;3.20;;;1.25;;
62582;SDS011;48641;51.676;5.808;2022-10-16T01:30:53;3.90;;;1.35;;
62582;SDS011;48641;51.676;5.808;2022-10-16T01:33:24;4.05;;;1.60;;
62582;SDS011;48641;51.676;5.808;2022-10-16T01:35:55;3.10;;;1.30;;
62582;SDS011;48641;51.676;5.808;2022-10-16T01:38:29;3.05;;;1.15;;
62582;SDS011;48641;51.676;5.808;2022-10-16T01:41:01;2.65;;;1.25;;
62582;SDS011;48641;51.676;5.808;2022-10-16T01:43:45;2.97;;;1.23;;
62582;SDS011;48641;51.676;5.808;2022-10-16T01:46:15;2.70;;;1.17;;
62582;SDS011;48641;51.676;5.808;2022-10-16T01:48:43;2.70;;;1.20;;
62582;SDS011;48641;51.676;5.808;2022-10-16T01:51:09;4.28;;;1.50;;
62582;SDS011;48641;51.676;5.808;2022-10-16T01:53:41;3.10;;;1.30;;
62582;SDS011;48641;51.676;5.808;2022-10-16T01:58:39;4.00;;;1.25;;
62582;SDS011;48641;51.676;5.808;2022-10-16T02:01:08;2.80;;;1.25;;
62582;SDS011;48641;51.676;5.808;2022-10-16T02:03:36;2.10;;;1.10;;
62582;SDS011;48641;51.676;5.808;2022-10-16T02:06:06;4.32;;;1.50;;
62582;SDS011;48641;51.676;5.808;2022-10-16T02:08:32;4.03;;;1.20;;
62582;SDS011;48641;51.676;5.808;2022-10-16T02:10:58;2.78;;;1.08;;
62582;SDS011;48641;51.676;5.808;2022-10-16T02:13:33;2.35;;;1.10;;
62582;SDS011;48641;51.676;5.808;2022-10-16T02:16:07;3.05;;;1.13;;
62582;SDS011;48641;51.676;5.808;2022-10-16T02:18:35;2.37;;;1.03;;
62582;SDS011;48641;51.676;5.808;2022-10-16T02:21:23;3.08;;;1.10;;
62582;SDS011;48641;51.676;5.808;2022-10-16T02:24:03;3.50;;;1.17;;
62582;SDS011;48641;51.676;5.808;2022-10-16T02:26:34;3.15;;;1.00;;
62582;SDS011;48641;51.676;5.808;2022-10-16T02:29:20;3.40;;;1.40;;
62582;SDS011;48641;51.676;5.808;2022-10-16T02:31:50;3.58;;;1.20;;
62582;SDS011;48641;51.676;5.808;2022-10-16T02:34:21;2.60;;;1.10;;
62582;SDS011;48641;51.676;5.808;2022-10-16T02:36:48;3.38;;;1.27;;
62582;SDS011;48641;51.676;5.808;2022-10-16T02:39:16;2.28;;;1.10;;
62582;SDS011;48641;51.676;5.808;2022-10-16T02:41:43;2.42;;;1.10;;
62582;SDS011;48641;51.676;5.808;2022-10-16T02:44:08;2.88;;;1.15;;
62582;SDS011;48641;51.676;5.808;2022-10-16T02:46:34;2.65;;;1.10;;
62582;SDS011;48641;51.676;5.808;2022-10-16T02:48:59;2.83;;;1.30;;
62582;SDS011;48641;51.676;5.808;2022-10-16T02:51:25;2.90;;;1.20;;
62582;SDS011;48641;51.676;5.808;2022-10-16T02:53:51;2.42;;;0.93;;
62582;SDS011;48641;51.676;5.808;2022-10-16T02:56:16;2.83;;;1.17;;
62582;SDS011;48641;51.676;5.808;2022-10-16T02:58:42;2.67;;;1.13;;
62582;SDS011;48641;51.676;5.808;2022-10-16T03:01:07;2.00;;;1.08;;
62582;SDS011;48641;51.676;5.808;2022-10-16T03:03:33;3.92;;;1.33;;
62582;SDS011;48641;51.676;5.808;2022-10-16T03:05:59;2.13;;;1.10;;
62582;SDS011;48641;51.676;5.808;2022-10-16T03:08:24;3.47;;;1.35;;
62582;SDS011;48641;51.676;5.808;2022-10-16T03:10:50;2.70;;;1.20;;
62582;SDS011;48641;51.676;5.808;2022-10-16T03:13:16;2.33;;;1.15;;
62582;SDS011;48641;51.676;5.808;2022-10-16T03:15:43;2.38;;;1.10;;
62582;SDS011;48641;51.676;5.808;2022-10-16T03:18:08;2.13;;;0.98;;
62582;SDS011;48641;51.676;5.808;2022-10-16T03:20:34;2.95;;;1.17;;
62582;SDS011;48641;51.676;5.808;2022-10-16T03:23:00;2.90;;;1.17;;
62582;SDS011;48641;51.676;5.808;2022-10-16T03:25:27;2.85;;;1.00;;
62582;SDS011;48641;51.676;5.808;2022-10-16T03:27:53;2.50;;;0.90;;
62582;SDS011;48641;51.676;5.808;2022-10-16T03:30:18;2.55;;;1.02;;
62582;SDS011;48641;51.676;5.808;2022-10-16T03:32:44;3.75;;;1.33;;
62582;SDS011;48641;51.676;5.808;2022-10-16T03:35:10;3.65;;;1.10;;
62582;SDS011;48641;51.676;5.808;2022-10-16T03:37:35;1.90;;;0.85;;
62582;SDS011;48641;51.676;5.808;2022-10-16T03:40:01;2.55;;;1.10;;
62582;SDS011;48641;51.676;5.808;2022-10-16T03:42:28;1.65;;;0.88;;
62582;SDS011;48641;51.676;5.808;2022-10-16T03:44:53;1.98;;;1.00;;
62582;SDS011;48641;51.676;5.808;2022-10-16T03:47:19;2.80;;;1.10;;
62582;SDS011;48641;51.676;5.808;2022-10-16T03:49:47;3.10;;;1.00;;
62582;SDS011;48641;51.676;5.808;2022-10-16T03:52:13;1.88;;;1.00;;
62582;SDS011;48641;51.676;5.808;2022-10-16T03:54:38;2.47;;;1.15;;
62582;SDS011;48641;51.676;5.808;2022-10-16T03:57:04;2.60;;;1.20;;
62582;SDS011;48641;51.676;5.808;2022-10-16T03:59:30;2.80;;;1.38;;
62582;SDS011;48641;51.676;5.808;2022-10-16T04:01:55;2.90;;;1.08;;
62582;SDS011;48641;51.676;5.808;2022-10-16T04:04:21;2.17;;;1.00;;
62582;SDS011;48641;51.676;5.808;2022-10-16T04:06:46;2.65;;;1.05;;
62582;SDS011;48641;51.676;5.808;2022-10-16T04:09:12;2.08;;;0.95;;
62582;SDS011;48641;51.676;5.808;2022-10-16T04:11:37;2.13;;;0.88;;
62582;SDS011;48641;51.676;5.808;2022-10-16T04:14:04;3.35;;;1.00;;
62582;SDS011;48641;51.676;5.808;2022-10-16T04:16:29;3.92;;;1.00;;
62582;SDS011;48641;51.676;5.808;2022-10-16T04:18:55;2.08;;;0.90;;
62582;SDS011;48641;51.676;5.808;2022-10-16T04:21:20;3.70;;;1.00;;
62582;SDS011;48641;51.676;5.808;2022-10-16T04:23:47;1.85;;;0.90;;
62582;SDS011;48641;51.676;5.808;2022-10-16T04:26:13;2.03;;;0.98;;
62582;SDS011;48641;51.676;5.808;2022-10-16T04:28:39;2.10;;;0.90;;
62582;SDS011;48641;51.676;5.808;2022-10-16T04:31:05;2.03;;;0.80;;
62582;SDS011;48641;51.676;5.808;2022-10-16T04:33:31;3.25;;;0.90;;
62582;SDS011;48641;51.676;5.808;2022-10-16T04:35:57;1.77;;;0.85;;
62582;SDS011;48641;51.676;5.808;2022-10-16T04:38:24;1.77;;;0.85;;
62582;SDS011;48641;51.676;5.808;2022-10-16T04:40:50;2.13;;;0.88;;
62582;SDS011;48641;51.676;5.808;2022-10-16T04:43:15;2.72;;;1.05;;
62582;SDS011;48641;51.676;5.808;2022-10-16T04:45:41;1.60;;;0.80;;
62582;SDS011;48641;51.676;5.808;2022-10-16T04:48:06;2.22;;;1.00;;
62582;SDS011;48641;51.676;5.808;2022-10-16T04:50:32;1.92;;;0.85;;
62582;SDS011;48641;51.676;5.808;2022-10-16T04:52:57;2.55;;;0.90;;
62582;SDS011;48641;51.676;5.808;2022-10-16T04:55:23;1.58;;;0.80;;
62582;SDS011;48641;51.676;5.808;2022-10-16T04:57:48;2.53;;;0.95;;
62582;SDS011;48641;51.676;5.808;2022-10-16T05:00:14;1.80;;;0.90;;
62582;SDS011;48641;51.676;5.808;2022-10-16T05:02:40;1.88;;;0.82;;
62582;SDS011;48641;51.676;5.808;2022-10-16T05:05:05;1.75;;;1.00;;
62582;SDS011;48641;51.676;5.808;2022-10-16T05:07:31;2.63;;;0.90;;
62582;SDS011;48641;51.676;5.808;2022-10-16T05:09:57;1.35;;;0.70;;
62582;SDS011;48641;51.676;5.808;2022-10-16T05:12:22;3.15;;;1.10;;
62582;SDS011;48641;51.676;5.808;2022-10-16T05:14:48;2.78;;;1.08;;
62582;SDS011;48641;51.676;5.808;2022-10-16T05:17:14;2.72;;;0.90;;
62582;SDS011;48641;51.676;5.808;2022-10-16T05:19:39;2.40;;;0.98;;
62582;SDS011;48641;51.676;5.808;2022-10-16T05:22:05;1.50;;;0.77;;
62582;SDS011;48641;51.676;5.808;2022-10-16T05:24:30;2.20;;;1.00;;
62582;SDS011;48641;51.676;5.808;2022-10-16T05:26:56;2.38;;;0.73;;
62582;SDS011;48641;51.676;5.808;2022-10-16T05:29:21;2.08;;;0.93;;
62582;SDS011;48641;51.676;5.808;2022-10-16T05:31:49;2.53;;;0.80;;
62582;SDS011;48641;51.676;5.808;2022-10-16T05:36:42;1.80;;;0.82;;
62582;SDS011;48641;51.676;5.808;2022-10-16T05:39:10;2.35;;;1.00;;
62582;SDS011;48641;51.676;5.808;2022-10-16T05:41:35;2.33;;;0.80;;
62582;SDS011;48641;51.676;5.808;2022-10-16T05:44:03;3.05;;;1.02;;
62582;SDS011;48641;51.676;5.808;2022-10-16T05:48:56;2.05;;;0.80;;
62582;SDS011;48641;51.676;5.808;2022-10-16T05:51:21;1.75;;;0.80;;
62582;SDS011;48641;51.676;5.808;2022-10-16T05:53:47;1.65;;;0.80;;
62582;SDS011;48641;51.676;5.808;2022-10-16T05:56:13;2.40;;;1.00;;
62582;SDS011;48641;51.676;5.808;2022-10-16T05:58:38;1.85;;;0.80;;
62582;SDS011;48641;51.676;5.808;2022-10-16T06:03:38;2.25;;;0.80;;
62582;SDS011;48641;51.676;5.808;2022-10-16T06:06:23;2.60;;;1.00;;
62582;SDS011;48641;51.676;5.808;2022-10-16T06:08:54;2.25;;;0.90;;
62582;SDS011;48641;51.676;5.808;2022-10-16T06:11:25;1.42;;;0.75;;
62582;SDS011;48641;51.676;5.808;2022-10-16T06:13:54;1.33;;;0.70;;
62582;SDS011;48641;51.676;5.808;2022-10-16T06:16:21;1.50;;;0.82;;
62582;SDS011;48641;51.676;5.808;2022-10-16T06:18:48;1.33;;;0.68;;
62582;SDS011;48641;51.676;5.808;2022-10-16T06:21:16;1.85;;;0.80;;
62582;SDS011;48641;51.676;5.808;2022-10-16T06:23:43;1.98;;;0.80;;
62582;SDS011;48641;51.676;5.808;2022-10-16T06:26:11;2.08;;;0.70;;
62582;SDS011;48641;51.676;5.808;2022-10-16T06:28:39;2.55;;;0.95;;
62582;SDS011;48641;51.676;5.808;2022-10-16T06:31:06;1.40;;;0.73;;
62582;SDS011;48641;51.676;5.808;2022-10-16T06:33:33;2.72;;;0.85;;
62582;SDS011;48641;51.676;5.808;2022-10-16T06:36:03;2.45;;;1.00;;
62582;SDS011;48641;51.676;5.808;2022-10-16T06:38:31;2.35;;;0.90;;
62582;SDS011;48641;51.676;5.808;2022-10-16T06:40:56;1.48;;;0.57;;
62582;SDS011;48641;51.676;5.808;2022-10-16T06:43:23;2.55;;;1.02;;
62582;SDS011;48641;51.676;5.808;2022-10-16T06:45:52;1.58;;;0.68;;
62582;SDS011;48641;51.676;5.808;2022-10-16T06:48:18;1.85;;;0.80;;
62582;SDS011;48641;51.676;5.808;2022-10-16T06:50:44;1.90;;;0.80;;
62582;SDS011;48641;51.676;5.808;2022-10-16T06:53:19;1.63;;;0.88;;
62582;SDS011;48641;51.676;5.808;2022-10-16T06:55:44;2.33;;;0.88;;
62582;SDS011;48641;51.676;5.808;2022-10-16T06:58:10;2.30;;;0.77;;
62582;SDS011;48641;51.676;5.808;2022-10-16T07:00:35;3.08;;;0.90;;
62582;SDS011;48641;51.676;5.808;2022-10-16T07:03:01;3.05;;;0.90;;
62582;SDS011;48641;51.676;5.808;2022-10-16T07:05:27;2.85;;;1.00;;
62582;SDS011;48641;51.676;5.808;2022-10-16T07:07:52;1.67;;;0.60;;
62582;SDS011;48641;51.676;5.808;2022-10-16T07:10:18;1.85;;;0.80;;
62582;SDS011;48641;51.676;5.808;2022-10-16T07:12:43;2.03;;;0.70;;
62582;SDS011;48641;51.676;5.808;2022-10-16T07:15:10;1.75;;;0.70;;
62582;SDS011;48641;51.676;5.808;2022-10-16T07:17:35;2.05;;;0.82;;
62582;SDS011;48641;51.676;5.808;2022-10-16T07:20:01;5.45;;;1.48;;
62582;SDS011;48641;51.676;5.808;2022-10-16T07:22:28;3.83;;;1.30;;
62582;SDS011;48641;51.676;5.808;2022-10-16T07:24:53;3.10;;;1.13;;
62582;SDS011;48641;51.676;5.808;2022-10-16T07:27:19;3.47;;;0.95;;
62582;SDS011;48641;51.676;5.808;2022-10-16T07:29:47;2.63;;;0.95;;
62582;SDS011;48641;51.676;5.808;2022-10-16T07:32:12;2.47;;;0.90;;
62582;SDS011;48641;51.676;5.808;2022-10-16T07:34:38;1.67;;;0.80;;
62582;SDS011;48641;51.676;5.808;2022-10-16T07:37:04;2.85;;;0.98;;
62582;SDS011;48641;51.676;5.808;2022-10-16T07:39:30;2.58;;;0.85;;
62582;SDS011;48641;51.676;5.808;2022-10-16T07:41:55;2.28;;;1.00;;
62582;SDS011;48641;51.676;5.808;2022-10-16T07:44:21;2.20;;;0.80;;
62582;SDS011;48641;51.676;5.808;2022-10-16T07:46:46;2.30;;;0.90;;
62582;SDS011;48641;51.676;5.808;2022-10-16T07:49:12;4.50;;;1.33;;
62582;SDS011;48641;51.676;5.808;2022-10-16T07:51:37;4.68;;;1.10;;
62582;SDS011;48641;51.676;5.808;2022-10-16T07:54:04;2.50;;;1.10;;
62582;SDS011;48641;51.676;5.808;2022-10-16T07:56:30;1.63;;;0.85;;
62582;SDS011;48641;51.676;5.808;2022-10-16T07:58:57;3.80;;;1.17;;
62582;SDS011;48641;51.676;5.808;2022-10-16T08:01:23;4.00;;;1.17;;
62582;SDS011;48641;51.676;5.808;2022-10-16T08:03:50;1.92;;;0.77;;
62582;SDS011;48641;51.676;5.808;2022-10-16T08:06:16;2.72;;;0.90;;
62582;SDS011;48641;51.676;5.808;2022-10-16T08:08:43;2.38;;;0.90;;
62582;SDS011;48641;51.676;5.808;2022-10-16T08:11:09;2.78;;;0.93;;
62582;SDS011;48641;51.676;5.808;2022-10-16T08:13:34;2.47;;;0.85;;
62582;SDS011;48641;51.676;5.808;2022-10-16T08:16:00;2.28;;;0.85;;
62582;SDS011;48641;51.676;5.808;2022-10-16T08:18:26;1.92;;;0.85;;
62582;SDS011;48641;51.676;5.808;2022-10-16T08:20:56;2.30;;;0.88;;
62582;SDS011;48641;51.676;5.808;2022-10-16T08:23:22;2.53;;;1.00;;
62582;SDS011;48641;51.676;5.808;2022-10-16T08:25:48;1.58;;;0.80;;
62582;SDS011;48641;51.676;5.808;2022-10-16T08:28:14;1.90;;;0.90;;
62582;SDS011;48641;51.676;5.808;2022-10-16T08:30:40;2.35;;;0.82;;
62582;SDS011;48641;51.676;5.808;2022-10-16T08:33:06;2.08;;;0.90;;
62582;SDS011;48641;51.676;5.808;2022-10-16T08:35:31;1.92;;;0.80;;
62582;SDS011;48641;51.676;5.808;2022-10-16T08:37:57;2.42;;;1.00;;
62582;SDS011;48641;51.676;5.808;2022-10-16T08:40:24;1.98;;;0.90;;
62582;SDS011;48641;51.676;5.808;2022-10-16T08:42:55;0.90;;;0.70;;
62582;SDS011;48641;51.676;5.808;2022-10-16T08:48:34;3.00;;;1.00;;
62582;SDS011;48641;51.676;5.808;2022-10-16T08:51:19;3.92;;;0.95;;
62582;SDS011;48641;51.676;5.808;2022-10-16T08:53:52;2.72;;;1.00;;
62582;SDS011;48641;51.676;5.808;2022-10-16T08:56:20;3.75;;;1.10;;
62582;SDS011;48641;51.676;5.808;2022-10-16T08:58:46;2.60;;;0.90;;
62582;SDS011;48641;51.676;5.808;2022-10-16T09:01:14;3.35;;;1.10;;
62582;SDS011;48641;51.676;5.808;2022-10-16T09:06:45;2.67;;;1.10;;
62582;SDS011;48641;51.676;5.808;2022-10-16T09:09:28;2.17;;;0.85;;
62582;SDS011;48641;51.676;5.808;2022-10-16T09:14:43;2.10;;;0.80;;
62582;SDS011;48641;51.676;5.808;2022-10-16T09:17:32;1.15;;;0.60;;
62582;SDS011;48641;51.676;5.808;2022-10-16T09:22:34;3.40;;;1.30;;
62582;SDS011;48641;51.676;5.808;2022-10-16T09:25:00;2.92;;;1.15;;
62582;SDS011;48641;51.676;5.808;2022-10-16T09:27:42;2.38;;;1.00;;
62582;SDS011;48641;51.676;5.808;2022-10-16T09:30:11;4.15;;;1.35;;
62582;SDS011;48641;51.676;5.808;2022-10-16T09:32:41;4.07;;;1.27;;
62582;SDS011;48641;51.676;5.808;2022-10-16T09:35:55;2.90;;;1.20;;
62582;SDS011;48641;51.676;5.808;2022-10-16T09:38:08;3.50;;;1.20;;
62582;SDS011;48641;51.676;5.808;2022-10-16T09:40:46;4.20;;;1.30;;
62582;SDS011;48641;51.676;5.808;2022-10-16T09:45:37;2.63;;;1.02;;
62582;SDS011;48641;51.676;5.808;2022-10-16T09:48:10;3.22;;;1.20;;
62582;SDS011;48641;51.676;5.808;2022-10-16T09:50:37;3.95;;;1.15;;
62582;SDS011;48641;51.676;5.808;2022-10-16T09:53:13;3.88;;;1.15;;
62582;SDS011;48641;51.676;5.808;2022-10-16T09:55:49;3.60;;;1.15;;
62582;SDS011;48641;51.676;5.808;2022-10-16T09:58:17;3.72;;;1.10;;
62582;SDS011;48641;51.676;5.808;2022-10-16T10:00:48;4.25;;;1.10;;
62582;SDS011;48641;51.676;5.808;2022-10-16T10:03:23;3.40;;;1.00;;
62582;SDS011;48641;51.676;5.808;2022-10-16T10:05:55;1.85;;;1.02;;
62582;SDS011;48641;51.676;5.808;2022-10-16T10:08:21;4.10;;;1.08;;
62582;SDS011;48641;51.676;5.808;2022-10-16T10:10:47;6.50;;;1.33;;
62582;SDS011;48641;51.676;5.808;2022-10-16T10:13:20;3.55;;;1.20;;
62582;SDS011;48641;51.676;5.808;2022-10-16T10:15:48;5.32;;;1.40;;
62582;SDS011;48641;51.676;5.808;2022-10-16T10:18:17;4.07;;;1.10;;
62582;SDS011;48641;51.676;5.808;2022-10-16T10:20:46;3.90;;;1.30;;
62582;SDS011;48641;51.676;5.808;2022-10-16T10:23:26;3.58;;;1.20;;
62582;SDS011;48641;51.676;5.808;2022-10-16T10:37:19;15.57;;;1.75;;
62582;SDS011;48641;51.676;5.808;2022-10-16T10:40:06;12.75;;;1.85;;
62582;SDS011;48641;51.676;5.808;2022-10-16T10:42:49;10.23;;;1.95;;
62582;SDS011;48641;51.676;5.808;2022-10-16T10:51:01;12.02;;;1.77;;
62582;SDS011;48641;51.676;5.808;2022-10-16T10:56:25;10.43;;;1.77;;
62582;SDS011;48641;51.676;5.808;2022-10-16T11:04:22;11.13;;;1.85;;
62582;SDS011;48641;51.676;5.808;2022-10-16T11:07:27;9.50;;;2.13;;
62582;SDS011;48641;51.676;5.808;2022-10-16T11:09:57;7.90;;;1.40;;
62582;SDS011;48641;51.676;5.808;2022-10-16T11:12:31;2.63;;;0.90;;
62582;SDS011;48641;51.676;5.808;2022-10-16T11:15:15;6.38;;;1.42;;
62582;SDS011;48641;51.676;5.808;2022-10-16T11:17:46;4.30;;;1.25;;
62582;SDS011;48641;51.676;5.808;2022-10-16T11:20:20;9.10;;;1.50;;
62582;SDS011;48641;51.676;5.808;2022-10-16T11:22:54;5.10;;;1.30;;
62582;SDS011;48641;51.676;5.808;2022-10-16T11:27:57;6.63;;;1.23;;
62582;SDS011;48641;51.676;5.808;2022-10-16T11:30:39;6.55;;;1.38;;
62582;SDS011;48641;51.676;5.808;2022-10-16T11:33:29;5.72;;;1.30;;
62582;SDS011;48641;51.676;5.808;2022-10-16T11:36:17;5.28;;;1.20;;
62582;SDS011;48641;51.676;5.808;2022-10-16T11:41:36;4.93;;;1.08;;
62582;SDS011;48641;51.676;5.808;2022-10-16T11:46:58;4.27;;;1.13;;
62582;SDS011;48641;51.676;5.808;2022-10-16T11:49:30;5.78;;;1.27;;
62582;SDS011;48641;51.676;5.808;2022-10-16T11:57:29;4.20;;;1.00;;
62582;SDS011;48641;51.676;5.808;2022-10-16T12:00:09;4.63;;;1.45;;
62582;SDS011;48641;51.676;5.808;2022-10-16T12:02:50;3.50;;;1.08;;
62582;SDS011;48641;51.676;5.808;2022-10-16T12:08:08;5.05;;;1.17;;
62582;SDS011;48641;51.676;5.808;2022-10-16T12:10:42;6.32;;;1.10;;
62582;SDS011;48641;51.676;5.808;2022-10-16T12:16:05;3.95;;;1.27;;
62582;SDS011;48641;51.676;5.808;2022-10-16T12:18:37;6.03;;;1.30;;
62582;SDS011;48641;51.676;5.808;2022-10-16T12:21:07;4.20;;;1.13;;
62582;SDS011;48641;51.676;5.808;2022-10-16T12:23:36;5.63;;;1.50;;
62582;SDS011;48641;51.676;5.808;2022-10-16T12:26:03;4.38;;;1.10;;
62582;SDS011;48641;51.676;5.808;2022-10-16T12:28:29;3.05;;;1.00;;
62582;SDS011;48641;51.676;5.808;2022-10-16T12:31:06;4.28;;;0.90;;
62582;SDS011;48641;51.676;5.808;2022-10-16T12:33:39;3.03;;;1.20;;
62582;SDS011;48641;51.676;5.808;2022-10-16T12:36:13;4.68;;;0.95;;
62582;SDS011;48641;51.676;5.808;2022-10-16T12:38:52;2.97;;;1.08;;
62582;SDS011;48641;51.676;5.808;2022-10-16T12:43:52;3.72;;;1.02;;
62582;SDS011;48641;51.676;5.808;2022-10-16T12:48:43;2.72;;;1.10;;
62582;SDS011;48641;51.676;5.808;2022-10-16T12:51:24;4.90;;;1.20;;
62582;SDS011;48641;51.676;5.808;2022-10-16T12:53:59;3.85;;;1.00;;
62582;SDS011;48641;51.676;5.808;2022-10-16T12:56:39;2.67;;;0.90;;
62582;SDS011;48641;51.676;5.808;2022-10-16T12:59:29;5.68;;;1.10;;
62582;SDS011;48641;51.676;5.808;2022-10-16T13:02:04;4.80;;;1.10;;
62582;SDS011;48641;51.676;5.808;2022-10-16T13:07:40;2.70;;;0.98;;
62582;SDS011;48641;51.676;5.808;2022-10-16T13:19:22;10.65;;;1.50;;
62582;SDS011;48641;51.676;5.808;2022-10-16T13:22:05;5.45;;;1.25;;
62582;SDS011;48641;51.676;5.808;2022-10-16T13:28:04;6.93;;;1.27;;
62582;SDS011;48641;51.676;5.808;2022-10-16T13:33:10;5.70;;;1.10;;
62582;SDS011;48641;51.676;5.808;2022-10-16T13:35:46;4.68;;;1.10;;
62582;SDS011;48641;51.676;5.808;2022-10-16T13:43:21;3.20;;;0.93;;
62582;SDS011;48641;51.676;5.808;2022-10-16T13:45:57;3.30;;;1.00;;
62582;SDS011;48641;51.676;5.808;2022-10-16T13:48:28;4.63;;;1.03;;
62582;SDS011;48641;51.676;5.808;2022-10-16T13:51:02;4.60;;;1.10;;
62582;SDS011;48641;51.676;5.808;2022-10-16T13:53:32;5.18;;;1.05;;
62582;SDS011;48641;51.676;5.808;2022-10-16T13:56:01;4.60;;;1.23;;
62582;SDS011;48641;51.676;5.808;2022-10-16T13:58:28;3.13;;;0.80;;
62582;SDS011;48641;51.676;5.808;2022-10-16T14:01:02;5.90;;;1.15;;
62582;SDS011;48641;51.676;5.808;2022-10-16T14:03:30;4.38;;;1.00;;
62582;SDS011;48641;51.676;5.808;2022-10-16T14:06:00;3.22;;;1.00;;
62582;SDS011;48641;51.676;5.808;2022-10-16T14:08:28;5.30;;;0.90;;
62582;SDS011;48641;51.676;5.808;2022-10-16T14:10:56;3.95;;;1.05;;
62582;SDS011;48641;51.676;5.808;2022-10-16T14:13:27;4.32;;;0.88;;
62582;SDS011;48641;51.676;5.808;2022-10-16T14:15:56;4.38;;;0.90;;
62582;SDS011;48641;51.676;5.808;2022-10-16T14:18:25;3.33;;;0.88;;
62582;SDS011;48641;51.676;5.808;2022-10-16T14:20:52;5.38;;;1.33;;
62582;SDS011;48641;51.676;5.808;2022-10-16T14:26:05;3.35;;;0.80;;
62582;SDS011;48641;51.676;5.808;2022-10-16T14:28:40;3.08;;;1.00;;
62582;SDS011;48641;51.676;5.808;2022-10-16T14:31:28;2.72;;;1.08;;
62582;SDS011;48641;51.676;5.808;2022-10-16T14:33:52;3.38;;;0.82;;
62582;SDS011;48641;51.676;5.808;2022-10-16T14:36:18;4.72;;;1.13;;
62582;SDS011;48641;51.676;5.808;2022-10-16T14:39:04;4.32;;;0.93;;
62582;SDS011;48641;51.676;5.808;2022-10-16T14:41:45;5.13;;;0.88;;
62582;SDS011;48641;51.676;5.808;2022-10-16T14:44:12;4.18;;;0.90;;
62582;SDS011;48641;51.676;5.808;2022-10-16T14:46:42;3.00;;;1.02;;
62582;SDS011;48641;51.676;5.808;2022-10-16T14:51:35;2.75;;;0.90;;
62582;SDS011;48641;51.676;5.808;2022-10-16T14:54:01;4.75;;;1.15;;
62582;SDS011;48641;51.676;5.808;2022-10-16T14:56:32;4.38;;;0.98;;
62582;SDS011;48641;51.676;5.808;2022-10-16T14:59:15;1.35;;;0.70;;
62582;SDS011;48641;51.676;5.808;2022-10-16T15:01:48;2.85;;;0.90;;
62582;SDS011;48641;51.676;5.808;2022-10-16T15:04:14;3.35;;;0.90;;
62582;SDS011;48641;51.676;5.808;2022-10-16T15:06:40;2.58;;;0.80;;
62582;SDS011;48641;51.676;5.808;2022-10-16T15:09:06;3.20;;;0.70;;
62582;SDS011;48641;51.676;5.808;2022-10-16T15:11:32;2.70;;;0.75;;
62582;SDS011;48641;51.676;5.808;2022-10-16T15:13:58;2.95;;;0.85;;
62582;SDS011;48641;51.676;5.808;2022-10-16T15:16:24;3.78;;;0.90;;
62582;SDS011;48641;51.676;5.808;2022-10-16T15:18:49;2.28;;;0.70;;
62582;SDS011;48641;51.676;5.808;2022-10-16T15:21:25;2.72;;;0.80;;
62582;SDS011;48641;51.676;5.808;2022-10-16T15:23:53;3.53;;;0.90;;
62582;SDS011;48641;51.676;5.808;2022-10-16T15:26:21;3.22;;;0.80;;
62582;SDS011;48641;51.676;5.808;2022-10-16T15:28:47;3.97;;;0.80;;
62582;SDS011;48641;51.676;5.808;2022-10-16T15:31:13;2.63;;;0.70;;
62582;SDS011;48641;51.676;5.808;2022-10-16T15:33:38;1.55;;;0.68;;
62582;SDS011;48641;51.676;5.808;2022-10-16T15:36:04;3.08;;;0.80;;
62582;SDS011;48641;51.676;5.808;2022-10-16T15:38:30;3.70;;;0.90;;
62582;SDS011;48641;51.676;5.808;2022-10-16T15:40:55;4.25;;;1.48;;
62582;SDS011;48641;51.676;5.808;2022-10-16T15:43:21;8.57;;;2.25;;
62582;SDS011;48641;51.676;5.808;2022-10-16T15:45:52;5.75;;;2.28;;
62582;SDS011;48641;51.676;5.808;2022-10-16T15:48:28;3.40;;;1.15;;
62582;SDS011;48641;51.676;5.808;2022-10-16T15:50:54;6.25;;;1.02;;
62582;SDS011;48641;51.676;5.808;2022-10-16T15:53:20;4.07;;;0.80;;
62582;SDS011;48641;51.676;5.808;2022-10-16T15:55:46;3.92;;;1.20;;
62582;SDS011;48641;51.676;5.808;2022-10-16T15:58:11;4.43;;;1.80;;
62582;SDS011;48641;51.676;5.808;2022-10-16T16:00:37;4.50;;;1.60;;
62582;SDS011;48641;51.676;5.808;2022-10-16T16:03:03;4.95;;;1.75;;
62582;SDS011;48641;51.676;5.808;2022-10-16T16:05:29;3.72;;;1.10;;
62582;SDS011;48641;51.676;5.808;2022-10-16T16:07:54;4.25;;;1.23;;
62582;SDS011;48641;51.676;5.808;2022-10-16T16:10:20;3.88;;;1.30;;
62582;SDS011;48641;51.676;5.808;2022-10-16T16:12:46;3.03;;;0.98;;
62582;SDS011;48641;51.676;5.808;2022-10-16T16:15:17;3.55;;;1.20;;
62582;SDS011;48641;51.676;5.808;2022-10-16T16:17:43;4.40;;;1.30;;
62582;SDS011;48641;51.676;5.808;2022-10-16T16:20:09;4.32;;;1.33;;
62582;SDS011;48641;51.676;5.808;2022-10-16T16:22:35;3.95;;;1.23;;
62582;SDS011;48641;51.676;5.808;2022-10-16T16:25:01;4.47;;;1.20;;
62582;SDS011;48641;51.676;5.808;2022-10-16T16:27:26;3.90;;;1.20;;
62582;SDS011;48641;51.676;5.808;2022-10-16T16:29:54;4.50;;;1.38;;
62582;SDS011;48641;51.676;5.808;2022-10-16T16:32:20;3.70;;;1.50;;
62582;SDS011;48641;51.676;5.808;2022-10-16T16:34:46;4.43;;;1.40;;
62582;SDS011;48641;51.676;5.808;2022-10-16T16:37:12;3.78;;;1.40;;
62582;SDS011;48641;51.676;5.808;2022-10-16T16:39:37;4.95;;;1.35;;
62582;SDS011;48641;51.676;5.808;2022-10-16T16:42:03;4.38;;;1.42;;
62582;SDS011;48641;51.676;5.808;2022-10-16T16:44:31;4.75;;;1.27;;
62582;SDS011;48641;51.676;5.808;2022-10-16T16:46:57;3.80;;;1.10;;
62582;SDS011;48641;51.676;5.808;2022-10-16T16:49:23;4.28;;;1.50;;
62582;SDS011;48641;51.676;5.808;2022-10-16T16:51:48;3.97;;;1.13;;
62582;SDS011;48641;51.676;5.808;2022-10-16T16:54:14;4.47;;;1.50;;
62582;SDS011;48641;51.676;5.808;2022-10-16T16:56:40;3.53;;;1.33;;
62582;SDS011;48641;51.676;5.808;2022-10-16T16:59:15;5.15;;;1.27;;